Time;durP1;ratioP1;P1;durP2;ratioP2;P2;SDS_P1;SDS_P2;PMS_P1;PMS_P2;Temp;Humidity;BMP_temperature;BMP_pressure;BME280_temperature;BME280_humidity;BME280_pressure;Samples;Min_cycle;Max_cycle;Signal;HPM_P1;HPM_P2
2021/03/03 00:00:58;;;;;;;24.53;18.30;;;-0.30;99.90;;;-143.91;100.00;62816.50;4983124;28;100344;-60
2021/03/03 00:03:25;;;;;;;28.23;19.30;;;-0.20;99.90;;;-143.91;100.00;62816.50;4982573;28;100154;-60
2021/03/03 00:05:51;;;;;;;30.87;20.30;;;-0.20;99.90;;;-143.91;100.00;62816.50;4982155;28;100351;-61
2021/03/03 00:08:17;;;;;;;33.33;20.57;;;-0.30;99.90;;;-143.91;100.00;62816.50;4981129;28;101560;-59
2021/03/03 00:10:45;;;;;;;33.73;21.40;;;-0.20;99.90;;;-143.91;100.00;62816.50;4982502;28;100788;-60
2021/03/03 00:13:11;;;;;;;28.83;19.03;;;-0.30;99.90;;;-143.91;100.00;62816.50;4982265;28;100327;-60
2021/03/03 00:15:37;;;;;;;28.53;19.93;;;-0.30;99.90;;;-143.91;100.00;62816.50;4982365;27;100237;-59
2021/03/03 00:18:05;;;;;;;29.73;19.50;;;-0.50;99.90;;;-143.91;100.00;62816.50;4985761;28;101148;-59
2021/03/03 00:20:31;;;;;;;30.37;20.73;;;-0.60;99.90;;;-143.91;100.00;62816.50;4985250;28;101038;-62
2021/03/03 00:22:58;;;;;;;30.87;20.00;;;-0.50;99.90;;;-143.91;100.00;62816.50;4986416;28;100108;-61
2021/03/03 00:25:24;;;;;;;29.00;19.83;;;-0.30;99.90;;;-143.91;100.00;62816.50;4986330;28;100049;-61
2021/03/03 00:27:51;;;;;;;31.80;21.17;;;-0.50;99.90;;;-143.91;100.00;62816.50;4984876;28;100039;-60
2021/03/03 00:30:19;;;;;;;31.90;19.73;;;-0.50;99.90;;;-143.91;100.00;62816.50;4984862;28;100559;-61
2021/03/03 00:32:47;;;;;;;28.17;18.30;;;-0.60;99.90;;;-143.91;100.00;62816.50;4984134;28;100354;-60
2021/03/03 00:35:14;;;;;;;30.93;18.37;;;-0.60;99.90;;;-143.91;100.00;62816.50;4984008;28;100200;-60
2021/03/03 00:37:41;;;;;;;23.47;15.67;;;-0.50;99.90;;;-143.91;100.00;62816.50;4982366;28;102531;-60
2021/03/03 00:40:10;;;;;;;31.93;18.33;;;-0.60;99.90;;;-143.91;100.00;62816.50;4984825;28;101017;-61
2021/03/03 00:42:37;;;;;;;25.07;18.13;;;-0.70;99.90;;;-143.91;100.00;62816.50;4981562;28;100181;-60
2021/03/03 00:45:06;;;;;;;32.00;20.33;;;-0.20;99.90;;;-143.91;100.00;62816.50;4999548;27;100191;-60
2021/03/03 00:47:33;;;;;;;27.53;18.43;;;-0.70;99.90;;;-143.91;100.00;62816.50;4984922;28;101544;-58
2021/03/03 00:50:02;;;;;;;31.47;18.33;;;-0.60;99.90;;;-143.91;100.00;62816.50;4985210;28;101404;-62
2021/03/03 00:52:32;;;;;;;32.63;18.20;;;-0.70;99.90;;;-143.91;100.00;62816.50;4966061;28;100232;-61
2021/03/03 00:54:58;;;;;;;26.80;17.13;;;-0.80;99.90;;;-143.91;100.00;62816.50;4983209;28;100462;-59
2021/03/03 00:57:25;;;;;;;26.47;15.90;;;-0.70;99.90;;;-143.91;100.00;62816.50;4984202;28;101354;-60
2021/03/03 00:59:51;;;;;;;30.67;17.47;;;-0.90;99.90;;;-143.91;100.00;62816.50;4999002;27;103059;-61
2021/03/03 01:02:19;;;;;;;23.33;14.73;;;-0.80;99.90;;;-143.91;100.00;62816.50;4982663;28;100311;-62
2021/03/03 01:04:46;;;;;;;26.57;16.30;;;-0.80;99.90;;;-143.91;100.00;62816.50;4982482;28;100237;-60
2021/03/03 01:07:12;;;;;;;25.30;16.30;;;-0.90;99.90;;;-143.91;100.00;62816.50;4999416;27;101908;-64
2021/03/03 01:09:39;;;;;;;22.70;14.73;;;-0.80;99.90;;;-143.91;100.00;62816.50;4982807;28;102512;-58
2021/03/03 01:12:07;;;;;;;22.27;16.10;;;-0.80;99.90;;;-143.91;100.00;62816.50;4984700;28;100064;-60
2021/03/03 01:14:36;;;;;;;22.03;15.47;;;-1.00;99.90;;;-143.91;100.00;62816.50;5000160;27;100207;-60
2021/03/03 01:17:03;;;;;;;24.07;14.77;;;-0.90;99.90;;;-143.91;100.00;62816.50;4965175;28;102282;-61
2021/03/03 01:19:36;;;;;;;23.90;14.50;;;-0.80;99.90;;;-143.91;100.00;62816.50;4981043;28;102394;-61
2021/03/03 01:22:03;;;;;;;21.87;14.13;;;-1.00;99.90;;;-143.91;100.00;62816.50;4983052;28;100449;-60
2021/03/03 01:24:29;;;;;;;23.53;14.57;;;-1.00;99.90;;;-143.91;100.00;62816.50;4984034;28;100240;-60
2021/03/03 01:26:55;;;;;;;26.30;16.10;;;-0.90;99.90;;;-143.91;100.00;62816.50;4982738;27;100983;-60
2021/03/03 01:29:22;;;;;;;23.70;15.47;;;-1.50;99.90;;;-143.91;100.00;62816.50;4983309;28;100052;-60
2021/03/03 01:31:49;;;;;;;20.80;14.13;;;-1.00;99.90;;;-143.91;100.00;62816.50;4983446;28;100163;-59
2021/03/03 01:34:15;;;;;;;24.10;14.67;;;-0.60;99.90;;;-143.91;100.00;62816.50;4984007;28;100237;-61
2021/03/03 01:36:42;;;;;;;26.00;14.03;;;-1.00;99.90;;;-143.91;100.00;62816.50;4983855;28;100129;-59
2021/03/03 01:39:09;;;;;;;22.43;14.23;;;-0.20;99.90;;;-143.91;100.00;62816.50;4983824;28;100876;-60
2021/03/03 01:41:35;;;;;;;22.80;14.83;;;-0.50;99.90;;;-143.91;100.00;62816.50;4983820;28;100075;-59
2021/03/03 01:44:02;;;;;;;21.73;13.13;;;-0.50;99.90;;;-143.91;100.00;62816.50;4985217;28;100130;-61
2021/03/03 01:46:34;;;;;;;25.27;14.83;;;-0.90;99.90;;;-143.91;100.00;62816.50;4993262;28;100212;-59
2021/03/03 01:49:01;;;;;;;21.63;13.53;;;0.10;99.90;;;-143.91;100.00;62816.50;4986035;28;100803;-61
2021/03/03 01:51:27;;;;;;;21.10;14.70;;;-1.00;99.90;;;-143.91;100.00;62816.50;4984880;28;100338;-62
2021/03/03 01:53:55;;;;;;;24.67;15.67;;;-1.20;99.90;;;-143.91;100.00;62816.50;4984678;28;100177;-62
2021/03/03 01:56:22;;;;;;;25.67;15.00;;;-0.60;99.90;;;-143.91;100.00;62816.50;4983598;28;101142;-62
2021/03/03 01:58:48;;;;;;;21.03;14.93;;;-0.80;99.90;;;-143.91;100.00;62816.50;4983358;28;101490;-61
2021/03/03 02:01:15;;;;;;;26.20;14.73;;;-0.60;99.90;;;-143.91;100.00;62816.50;4983686;28;100227;-59
2021/03/03 02:03:42;;;;;;;23.03;14.50;;;-1.00;99.90;;;-143.91;100.00;62816.50;4984881;28;100080;-63
2021/03/03 02:06:16;;;;;;;22.60;14.73;;;-1.20;99.90;;;-143.91;100.00;62816.50;4998102;27;104106;-61
2021/03/03 02:08:49;;;;;;;21.43;13.00;;;-1.10;99.90;;;-143.91;100.00;62816.50;4983544;28;101523;-62
2021/03/03 02:11:24;;;;;;;22.00;13.77;;;-1.10;99.90;;;-143.91;100.00;62816.50;4983179;28;100163;-63
2021/03/03 02:13:57;;;;;;;21.23;15.20;;;-1.10;99.90;;;-143.91;100.00;62816.50;4983929;28;100352;-62
2021/03/03 02:16:23;;;;;;;22.57;14.63;;;-1.00;99.90;;;-143.91;100.00;62816.50;4984095;28;101790;-62
2021/03/03 02:18:50;;;;;;;23.03;15.60;;;-1.10;99.90;;;-143.91;100.00;62816.50;4984130;28;100640;-62
2021/03/03 02:21:26;;;;;;;21.90;13.27;;;-0.90;99.90;;;-143.91;100.00;62816.50;4984181;28;100376;-61
2021/03/03 02:24:01;;;;;;;26.07;14.50;;;-0.10;99.90;;;-143.91;100.00;62816.50;4985800;28;100008;-60
2021/03/03 02:26:33;;;;;;;21.10;13.73;;;-1.10;99.90;;;-143.91;100.00;62816.50;4984192;28;100812;-60
2021/03/03 02:29:02;;;;;;;21.37;14.30;;;-1.00;99.90;;;-143.91;100.00;62816.50;4984083;28;100567;-61
2021/03/03 02:31:29;;;;;;;22.07;14.37;;;-1.10;99.90;;;-143.91;100.00;62816.50;4983758;28;100428;-61
2021/03/03 02:33:57;;;;;;;22.57;14.17;;;-1.80;99.90;;;-143.91;100.00;62816.50;4984248;28;100114;-59
2021/03/03 02:36:25;;;;;;;28.13;14.80;;;-1.10;99.90;;;-143.91;100.00;62816.50;4982862;28;101075;-59
2021/03/03 02:38:51;;;;;;;23.20;13.57;;;-0.50;99.90;;;-143.91;100.00;62816.50;4982757;27;101902;-60
2021/03/03 02:41:19;;;;;;;19.60;13.23;;;-0.30;99.90;;;-143.91;100.00;62816.50;4983579;28;100321;-60
2021/03/03 02:43:47;;;;;;;25.50;14.53;;;-1.10;99.90;;;-143.91;100.00;62816.50;4983559;28;100257;-60
2021/03/03 02:46:15;;;;;;;21.10;12.97;;;-1.20;99.90;;;-143.91;100.00;62816.50;4983125;28;101306;-60
2021/03/03 02:48:41;;;;;;;17.73;12.70;;;-0.80;99.90;;;-143.91;100.00;62816.50;4983655;28;100501;-60
2021/03/03 02:51:08;;;;;;;23.00;13.53;;;-1.30;99.90;;;-143.91;100.00;62816.50;4983453;28;100160;-60
2021/03/03 02:53:34;;;;;;;28.90;15.07;;;-0.70;99.90;;;-143.91;100.00;62816.50;4983648;28;100348;-61
2021/03/03 02:56:01;;;;;;;21.73;14.00;;;-1.20;99.90;;;-143.91;100.00;62816.50;4983052;28;101076;-59
2021/03/03 02:58:27;;;;;;;23.87;13.50;;;-1.40;99.90;;;-143.91;100.00;62816.50;4982907;28;101133;-59
2021/03/03 03:00:57;;;;;;;23.40;14.30;;;-0.90;99.90;;;-143.91;100.00;62816.50;4982472;28;100137;-60
2021/03/03 03:03:27;;;;;;;23.93;13.50;;;-1.40;99.90;;;-143.91;100.00;62816.50;4983331;28;100175;-60
2021/03/03 03:06:00;;;;;;;18.67;12.47;;;-1.40;99.90;;;-143.91;100.00;62816.50;4985151;28;102133;-61
2021/03/03 03:08:29;;;;;;;22.70;13.13;;;-1.30;99.90;;;-143.91;100.00;62816.50;4983063;28;101091;-58
2021/03/03 03:11:00;;;;;;;23.27;13.90;;;-0.80;99.90;;;-143.91;100.00;62816.50;4983121;28;100495;-60
2021/03/03 03:13:29;;;;;;;22.43;12.97;;;-1.20;99.90;;;-143.91;100.00;62816.50;4983053;28;100302;-61
2021/03/03 03:15:59;;;;;;;18.20;12.33;;;-2.10;99.90;;;-143.91;100.00;62816.50;4982759;28;101080;-60
2021/03/03 03:18:29;;;;;;;23.20;13.97;;;-1.40;99.90;;;-143.91;100.00;62816.50;4987218;28;100537;-60
2021/03/03 03:20:58;;;;;;;22.73;13.70;;;-1.40;99.90;;;-143.91;100.00;62816.50;4983304;28;100603;-61
2021/03/03 03:23:27;;;;;;;18.77;13.07;;;-1.40;99.90;;;-143.91;100.00;62816.50;4983591;28;100199;-59
2021/03/03 03:25:54;;;;;;;22.70;12.63;;;-1.60;99.90;;;-143.91;100.00;62816.50;4982166;28;101846;-60
2021/03/03 03:28:21;;;;;;;21.17;12.90;;;-1.60;99.90;;;-143.91;100.00;62816.50;4983239;28;100865;-58
2021/03/03 03:30:51;;;;;;;21.60;13.43;;;-1.50;99.90;;;-143.91;100.00;62816.50;4982695;28;100190;-60
2021/03/03 03:33:19;;;;;;;20.77;13.73;;;-1.70;99.90;;;-143.91;100.00;62816.50;4983393;28;100037;-59
2021/03/03 03:35:46;;;;;;;22.83;13.03;;;-1.30;99.90;;;-143.91;100.00;62816.50;4982766;28;101374;-58
2021/03/03 03:38:13;;;;;;;23.33;15.57;;;-0.70;99.90;;;-143.91;100.00;62816.50;4982674;28;100978;-59
2021/03/03 03:40:40;;;;;;;23.23;14.67;;;-0.80;99.90;;;-143.91;100.00;62816.50;4982768;28;100046;-60
2021/03/03 03:43:11;;;;;;;21.73;14.03;;;-2.10;99.90;;;-143.91;100.00;62816.50;4983016;28;100150;-60
2021/03/03 03:45:38;;;;;;;21.20;13.27;;;-0.80;99.90;;;-143.91;100.00;62816.50;4982699;28;101514;-61
2021/03/03 03:48:07;;;;;;;20.77;13.10;;;-1.20;99.90;;;-143.91;100.00;62816.50;4982446;28;101272;-61
2021/03/03 03:50:34;;;;;;;23.07;12.50;;;-1.80;99.90;;;-143.91;100.00;62816.50;4980868;28;100067;-60
2021/03/03 03:53:01;;;;;;;19.73;13.47;;;-1.80;99.90;;;-143.91;100.00;62816.50;4962630;28;100598;-59
2021/03/03 03:55:32;;;;;;;20.27;12.00;;;-1.80;99.90;;;-143.91;100.00;62816.50;4982100;28;101460;-60
2021/03/03 03:57:59;;;;;;;16.93;11.37;;;-1.10;99.90;;;-143.91;100.00;62816.50;4982316;28;100550;-59
2021/03/03 04:00:28;;;;;;;20.63;12.80;;;-2.00;99.90;;;-143.91;100.00;62816.50;4981998;28;100211;-61
2021/03/03 04:02:54;;;;;;;20.07;12.67;;;-1.80;99.90;;;-143.91;100.00;62816.50;4982794;28;100097;-59
2021/03/03 04:05:21;;;;;;;22.30;14.17;;;-1.50;99.90;;;-143.91;100.00;62816.50;4982189;28;101439;-61
2021/03/03 04:07:49;;;;;;;20.63;12.93;;;-1.90;99.90;;;-143.91;100.00;62816.50;4982826;28;100720;-60
2021/03/03 04:10:19;;;;;;;21.63;13.03;;;-2.00;99.90;;;-143.91;100.00;62816.50;4982403;28;100206;-60
2021/03/03 04:12:45;;;;;;;19.07;12.43;;;-2.00;99.90;;;-143.91;100.00;62816.50;4982483;28;100109;-58
2021/03/03 04:15:13;;;;;;;21.30;12.40;;;-1.90;99.90;;;-143.91;100.00;62816.50;4979514;28;101694;-60
2021/03/03 04:17:40;;;;;;;19.87;13.20;;;-1.90;99.90;;;-143.91;100.00;62816.50;4982792;28;100747;-59
2021/03/03 04:20:09;;;;;;;21.30;11.93;;;-0.90;99.90;;;-143.91;100.00;62816.50;4982264;28;100360;-59
2021/03/03 04:22:36;;;;;;;19.00;10.87;;;-2.00;99.90;;;-143.91;100.00;62816.50;4982998;28;100326;-60
2021/03/03 04:25:07;;;;;;;19.90;11.83;;;-1.60;99.90;;;-143.91;100.00;62816.50;4982231;28;101879;-59
2021/03/03 04:27:34;;;;;;;19.90;12.47;;;-1.90;99.90;;;-143.91;100.00;62816.50;4982059;28;101137;-59
2021/03/03 04:30:00;;;;;;;20.97;13.47;;;-0.60;99.90;;;-143.91;100.00;62816.50;4982062;28;100268;-59
2021/03/03 04:32:27;;;;;;;19.37;13.37;;;-1.90;99.90;;;-143.91;100.00;62816.50;4982330;28;100285;-59
2021/03/03 04:34:53;;;;;;;18.13;12.07;;;-0.90;99.90;;;-143.91;100.00;62816.50;4981657;28;101201;-60
2021/03/03 04:37:19;;;;;;;21.97;13.13;;;-1.10;99.90;;;-143.91;100.00;62816.50;4981899;28;100841;-61
2021/03/03 04:39:46;;;;;;;50.73;27.40;;;-1.20;99.90;;;-143.91;100.00;62816.50;4982341;28;100504;-60
2021/03/03 04:42:13;;;;;;;43.47;25.17;;;-2.10;99.90;;;-143.91;100.00;62816.50;4981833;28;100226;-58
2021/03/03 04:44:39;;;;;;;33.17;18.07;;;-2.10;99.90;;;-143.91;100.00;62816.50;4981437;28;101503;-61
2021/03/03 04:47:06;;;;;;;23.90;14.80;;;-2.00;99.90;;;-143.91;100.00;62816.50;4981809;28;100540;-61
2021/03/03 04:49:32;;;;;;;30.00;18.77;;;-0.90;99.90;;;-143.91;100.00;62816.50;4982250;28;100159;-60
2021/03/03 04:51:59;;;;;;;25.03;16.60;;;-2.00;99.90;;;-143.91;100.00;62816.50;4982884;28;100731;-61
2021/03/03 04:54:25;;;;;;;27.80;15.50;;;-2.10;99.90;;;-143.91;100.00;62816.50;4983576;28;102112;-61
2021/03/03 04:56:52;;;;;;;24.20;13.33;;;-2.10;99.90;;;-143.91;100.00;62816.50;4981908;28;101379;-60
2021/03/03 04:59:19;;;;;;;22.77;13.50;;;-2.10;99.90;;;-143.91;100.00;62816.50;4982028;28;100176;-59
2021/03/03 05:01:45;;;;;;;23.63;12.70;;;-2.00;99.90;;;-143.91;100.00;62816.50;4980208;27;100314;-62
2021/03/03 05:04:12;;;;;;;21.80;13.50;;;-2.10;99.90;;;-143.91;100.00;62816.50;4984585;28;100912;-61
2021/03/03 05:06:38;;;;;;;21.53;14.03;;;-2.20;99.90;;;-143.91;100.00;62816.50;4984759;28;100771;-61
2021/03/03 05:09:05;;;;;;;25.70;15.67;;;-2.10;99.90;;;-143.91;100.00;62816.50;4985175;28;100483;-62
2021/03/03 05:11:32;;;;;;;25.97;15.90;;;-2.10;99.90;;;-143.91;100.00;62816.50;4985196;28;100200;-61
2021/03/03 05:13:58;;;;;;;31.13;16.83;;;-2.00;99.90;;;-143.91;100.00;62816.50;4985024;28;100991;-61
2021/03/03 05:16:25;;;;;;;28.77;16.43;;;-2.00;99.90;;;-143.91;100.00;62816.50;4984458;28;101237;-62
2021/03/03 05:18:52;;;;;;;30.70;16.47;;;-1.00;99.90;;;-143.91;100.00;62816.50;4985751;28;100264;-61
2021/03/03 05:21:18;;;;;;;27.67;15.37;;;-2.00;99.90;;;-143.91;100.00;62816.50;4985519;28;100460;-60
2021/03/03 05:23:44;;;;;;;25.70;14.37;;;-1.00;99.90;;;-143.91;100.00;62816.50;4984906;28;101087;-60
2021/03/03 05:26:12;;;;;;;26.10;13.90;;;-1.90;99.90;;;-143.91;100.00;62816.50;4986118;28;100572;-61
2021/03/03 05:28:39;;;;;;;25.10;15.07;;;-1.90;99.90;;;-143.91;100.00;62816.50;4984823;28;100210;-63
2021/03/03 05:31:06;;;;;;;27.03;14.70;;;-2.00;99.90;;;-143.91;100.00;62816.50;4984930;28;100221;-60
2021/03/03 05:33:35;;;;;;;24.87;14.43;;;-1.60;99.90;;;-143.91;100.00;62816.50;4985181;28;100693;-62
2021/03/03 05:36:04;;;;;;;27.97;14.17;;;-1.10;99.90;;;-143.91;100.00;62816.50;4984159;28;100827;-58
2021/03/03 05:38:32;;;;;;;28.53;14.80;;;-2.10;99.90;;;-143.91;100.00;62816.50;4984643;28;99983;-63
2021/03/03 05:40:59;;;;;;;28.50;15.13;;;-2.20;99.90;;;-143.91;100.00;62816.50;4984733;28;100176;-61
2021/03/03 05:43:26;;;;;;;26.00;15.10;;;-2.10;99.90;;;-143.91;100.00;62816.50;4984702;28;100787;-60
2021/03/03 05:45:52;;;;;;;22.27;15.27;;;-2.20;99.90;;;-143.91;100.00;62816.50;4984795;28;100852;-61
2021/03/03 05:48:26;;;;;;;23.53;14.37;;;-1.60;99.90;;;-143.91;100.00;62816.50;4984361;28;100212;-60
2021/03/03 05:50:57;;;;;;;22.50;13.67;;;-2.20;99.90;;;-143.91;100.00;62816.50;4984561;28;100244;-61
2021/03/03 05:53:25;;;;;;;24.27;14.40;;;-2.20;99.90;;;-143.91;100.00;62816.50;4997735;27;101883;-59
2021/03/03 05:55:54;;;;;;;21.27;13.13;;;-2.20;99.90;;;-143.91;100.00;62816.50;4984535;28;101227;-59
2021/03/03 05:58:22;;;;;;;20.57;12.73;;;-2.30;99.90;;;-143.91;100.00;62816.50;4984492;28;100094;-60
2021/03/03 06:00:50;;;;;;;23.47;14.20;;;-1.50;99.90;;;-143.91;100.00;62816.50;4984138;28;100293;-58
2021/03/03 06:03:17;;;;;;;27.10;13.33;;;-2.40;99.90;;;-143.91;100.00;62816.50;4983939;28;101337;-60
2021/03/03 06:05:47;;;;;;;22.67;14.40;;;-1.60;99.90;;;-143.91;100.00;62816.50;4998609;27;103003;-59
2021/03/03 06:08:18;;;;;;;24.30;13.93;;;-2.10;99.90;;;-143.91;100.00;62816.50;4984165;28;100012;-63
2021/03/03 06:10:45;;;;;;;21.30;13.33;;;-2.20;99.90;;;-143.91;100.00;62816.50;4984732;28;100243;-61
2021/03/03 06:13:12;;;;;;;21.07;14.13;;;-1.70;99.90;;;-143.91;100.00;62816.50;4983773;27;101178;-60
2021/03/03 06:15:40;;;;;;;22.10;13.83;;;-1.00;99.90;;;-143.91;100.00;62816.50;4983993;28;101302;-61
2021/03/03 06:18:08;;;;;;;24.53;14.73;;;-1.80;99.90;;;-143.91;100.00;62816.50;4983778;28;100289;-63
2021/03/03 06:20:39;;;;;;;29.30;15.57;;;-1.60;99.90;;;-143.91;100.00;62816.50;4984181;28;99977;-60
2021/03/03 06:23:18;;;;;;;24.00;14.73;;;-1.40;99.90;;;-143.91;100.00;62816.50;4983830;28;100597;-61
2021/03/03 06:25:47;;;;;;;21.30;13.43;;;-1.20;99.90;;;-143.91;100.00;62816.50;4984198;28;100516;-62
2021/03/03 06:28:32;;;;;;;20.53;12.70;;;-2.10;99.90;;;-143.91;100.00;62816.50;4984225;28;100133;-61
2021/03/03 06:30:59;;;;;;;24.40;13.83;;;-0.80;99.90;;;-143.91;100.00;62816.50;4983748;28;100165;-61
2021/03/03 06:33:26;;;;;;;27.43;13.43;;;-0.20;99.90;;;-143.91;100.00;62816.50;4983817;28;100813;-62
2021/03/03 06:35:53;;;;;;;24.67;13.53;;;-0.40;99.90;;;-143.91;100.00;62816.50;4984188;28;100952;-61
2021/03/03 06:38:29;;;;;;;21.77;13.13;;;-0.20;99.90;;;-143.91;100.00;62816.50;4984283;28;100110;-61
2021/03/03 06:40:59;;;;;;;24.80;12.97;;;0.00;99.90;;;-143.91;100.00;62816.50;4983176;28;100161;-60
2021/03/03 06:43:27;;;;;;;25.33;13.23;;;0.20;99.90;;;-143.91;100.00;62816.50;4983396;28;101177;-60
2021/03/03 06:45:55;;;;;;;21.20;13.47;;;0.40;99.90;;;-143.91;100.00;62816.50;4984294;28;100534;-63
2021/03/03 06:48:41;;;;;;;20.10;12.83;;;0.70;99.90;;;-143.91;100.00;62816.50;4983916;28;100044;-59
2021/03/03 06:51:29;;;;;;;17.00;12.23;;;0.90;99.90;;;-143.91;100.00;62816.50;4964958;28;100466;-60
2021/03/03 06:53:59;;;;;;;20.97;12.67;;;1.10;99.90;;;-143.91;100.00;62816.50;4983371;28;101189;-59
2021/03/03 06:56:36;;;;;;;20.27;12.40;;;1.40;99.90;;;-143.91;100.00;62816.50;4983073;28;101460;-62
2021/03/03 06:59:19;;;;;;;21.40;12.37;;;1.50;99.90;;;-143.91;100.00;62816.50;4983334;28;100187;-63
2021/03/03 07:01:47;;;;;;;21.07;13.00;;;1.90;99.90;;;-143.91;100.00;62816.50;4983388;28;100390;-60
2021/03/03 07:04:22;;;;;;;23.03;13.60;;;2.30;99.90;;;-143.91;100.00;62816.50;4982660;28;101542;-63
2021/03/03 07:06:51;;;;;;;21.03;12.90;;;2.40;99.90;;;-143.91;100.00;62816.50;4982977;28;100596;-61
2021/03/03 07:09:19;;;;;;;23.63;13.90;;;2.70;99.90;;;-143.91;100.00;62816.50;4982522;28;100175;-61
2021/03/03 07:11:46;;;;;;;21.83;13.63;;;3.00;99.90;;;-143.91;100.00;62816.50;4983399;28;100141;-60
2021/03/03 07:14:17;;;;;;;20.97;13.53;;;3.30;99.90;;;-143.91;100.00;62816.50;4982751;28;101720;-60
2021/03/03 07:17:07;;;;;;;33.77;14.93;;;3.70;99.90;;;-143.91;100.00;62816.50;4982745;28;100651;-60
2021/03/03 07:19:36;;;;;;;20.63;13.67;;;3.90;99.90;;;-143.91;100.00;62816.50;4982834;28;100114;-61
2021/03/03 07:22:05;;;;;;;20.53;13.23;;;4.50;99.90;;;-143.91;100.00;62816.50;4982549;28;100230;-62
2021/03/03 07:24:32;;;;;;;19.90;14.40;;;4.70;99.90;;;-143.91;100.00;62816.50;4982853;28;101536;-61
2021/03/03 07:27:02;;;;;;;21.80;13.60;;;5.00;99.90;;;-143.91;100.00;62816.50;4979844;28;103289;-62
2021/03/03 07:29:30;;;;;;;22.83;14.50;;;5.40;99.90;;;-143.91;100.00;62816.50;4982741;28;100501;-61
2021/03/03 07:31:57;;;;;;;22.90;14.23;;;5.70;99.90;;;-143.91;100.00;62816.50;4982451;28;100162;-61
2021/03/03 07:34:26;;;;;;;27.10;15.53;;;6.10;99.90;;;-143.91;100.00;62816.50;4982056;28;101877;-62
2021/03/03 07:36:53;;;;;;;24.23;14.13;;;6.40;99.90;;;-143.91;100.00;62816.50;4982440;28;101280;-62
2021/03/03 07:39:21;;;;;;;20.67;14.00;;;6.70;99.90;;;-143.91;100.00;62816.50;4981959;28;100277;-63
2021/03/03 07:41:48;;;;;;;19.87;13.00;;;7.00;99.90;;;-143.91;100.00;62816.50;4982488;28;100689;-61
2021/03/03 07:44:19;;;;;;;22.77;13.23;;;7.30;99.90;;;-143.91;100.00;62816.50;4982575;28;101246;-62
2021/03/03 07:46:48;;;;;;;23.53;13.23;;;7.70;99.90;;;-143.91;100.00;62816.50;4985494;28;101523;-62
2021/03/03 07:49:21;;;;;;;22.60;13.10;;;8.10;99.90;;;-143.91;100.00;62816.50;4982789;28;100228;-63
2021/03/03 07:51:49;;;;;;;22.43;14.67;;;8.50;99.90;;;-143.91;100.00;62816.50;4982516;28;100669;-62
2021/03/03 07:54:15;;;;;;;19.60;13.90;;;8.80;99.90;;;-143.91;100.00;62816.50;4981517;28;101127;-63
2021/03/03 07:56:43;;;;;;;21.67;14.37;;;8.90;99.90;;;-143.91;100.00;62816.50;4982703;28;100397;-62
2021/03/03 07:59:11;;;;;;;21.30;14.20;;;9.30;99.90;;;-143.91;100.00;62816.50;4981393;28;100285;-62
2021/03/03 08:01:38;;;;;;;21.70;15.00;;;9.60;99.90;;;-143.91;100.00;62816.50;4982434;28;100535;-62
2021/03/03 08:04:06;;;;;;;20.73;13.27;;;9.90;99.90;;;-143.91;100.00;62816.50;4981870;28;101252;-62
2021/03/03 08:06:39;;;;;;;19.10;13.70;;;10.10;98.70;;;-143.91;100.00;62816.50;4982000;28;100704;-63
2021/03/03 08:09:23;;;;;;;21.27;13.37;;;10.50;97.90;;;-143.91;100.00;62816.50;4982227;28;100442;-61
2021/03/03 08:12:03;;;;;;;21.97;13.33;;;10.70;95.30;;;-143.91;100.00;62816.50;4982351;28;100333;-62
2021/03/03 08:14:38;;;;;;;17.30;12.60;;;10.90;92.80;;;-143.91;100.00;62816.50;4982349;28;101170;-62
2021/03/03 08:17:10;;;;;;;19.77;13.30;;;11.10;92.00;;;-143.91;100.00;62816.50;4982289;28;101105;-62
2021/03/03 08:20:01;;;;;;;17.70;13.10;;;11.20;90.80;;;-143.91;100.00;62816.50;4982027;28;100505;-62
2021/03/03 08:22:53;;;;;;;18.53;12.70;;;11.50;88.10;;;-143.91;100.00;62816.50;4962796;28;100669;-62
2021/03/03 08:25:43;;;;;;;15.43;11.73;;;11.60;82.30;;;-143.91;100.00;62816.50;4981458;28;100871;-62
2021/03/03 08:28:34;;;;;;;15.60;11.87;;;11.70;80.50;;;-143.91;100.00;62816.50;4982070;28;100835;-63
2021/03/03 08:31:35;;;;;;;18.27;11.23;;;11.80;79.20;;;-143.91;100.00;62816.50;4962383;28;100215;-62
2021/03/03 08:34:08;;;;;;;14.40;10.67;;;11.80;75.40;;;-143.91;100.00;62816.50;4982150;28;100498;-63
2021/03/03 08:37:00;;;;;;;17.50;11.33;;;12.10;73.60;;;-143.91;100.00;62816.50;4982690;28;101900;-63
2021/03/03 08:39:39;;;;;;;16.73;10.30;;;12.10;68.60;;;-143.91;100.00;62816.50;4985795;28;100138;-62
2021/03/03 08:42:36;;;;;;;16.87;11.97;;;12.10;69.00;;;-143.91;100.00;62816.50;4984848;28;100609;-62
2021/03/03 08:45:12;;;;;;;15.37;11.47;;;12.10;64.80;;;-143.91;100.00;62816.50;4985167;28;100148;-62
2021/03/03 08:47:57;;;;;;;14.97;11.40;;;12.30;67.60;;;-143.91;100.00;62816.50;4985015;28;101098;-62
2021/03/03 08:50:38;;;;;;;17.90;11.53;;;13.40;67.20;;;-143.91;100.00;62816.50;4985093;28;100546;-63
2021/03/03 08:53:28;;;;;;;13.27;10.53;;;12.60;62.80;;;-143.91;100.00;62816.50;4984603;28;100188;-62
2021/03/03 08:55:56;;;;;;;16.57;11.57;;;13.70;63.80;;;-143.91;100.00;62816.50;4984959;28;100167;-62
2021/03/03 08:59:00;;;;;;;14.97;10.33;;;13.00;64.10;;;-143.91;100.00;62816.50;4984974;28;100758;-62
2021/03/03 09:02:00;;;;;;;14.33;10.97;;;13.00;59.90;;;-143.91;100.00;62816.50;4984991;28;100536;-62
2021/03/03 09:04:30;;;;;;;14.53;10.60;;;13.30;57.60;;;-143.91;100.00;62816.50;4985613;28;100036;-62
2021/03/03 09:06:58;;;;;;;14.87;9.93;;;13.40;58.70;;;-143.91;100.00;62816.50;4985840;28;100115;-64
2021/03/03 09:09:26;;;;;;;15.63;10.97;;;13.40;58.50;;;-143.91;100.00;62816.50;4985432;28;101562;-62
2021/03/03 09:12:01;;;;;;;15.47;10.93;;;13.40;58.00;;;-143.91;100.00;62816.50;4984963;28;101539;-62
2021/03/03 09:14:28;;;;;;;15.97;11.23;;;13.40;57.10;;;-143.91;100.00;62816.50;4984768;28;100239;-63
2021/03/03 09:16:58;;;;;;;13.70;10.93;;;13.50;57.50;;;-143.91;100.00;62816.50;4984374;28;100152;-62
2021/03/03 09:19:27;;;;;;;14.43;11.13;;;13.60;56.10;;;-143.91;100.00;62816.50;4984176;28;101910;-62
2021/03/03 09:21:54;;;;;;;15.43;10.77;;;13.80;56.00;;;-143.91;100.00;62816.50;4998768;27;103058;-62
2021/03/03 09:24:21;;;;;;;14.90;10.60;;;13.70;56.20;;;-143.91;100.00;62816.50;4984930;28;100086;-63
2021/03/03 09:27:05;;;;;;;15.10;11.13;;;13.70;56.30;;;-143.91;100.00;62816.50;4985553;28;100291;-66
2021/03/03 09:29:35;;;;;;;14.90;11.27;;;13.90;55.30;;;-143.91;100.00;62816.50;4984500;28;100646;-64
2021/03/03 09:32:08;;;;;;;15.40;10.87;;;14.20;54.80;;;-143.91;100.00;62816.50;4984474;28;100701;-62
2021/03/03 09:34:36;;;;;;;12.17;10.33;;;14.10;55.00;;;-143.91;100.00;62816.50;4984946;28;100325;-62
2021/03/03 09:37:04;;;;;;;13.87;10.20;;;14.10;55.10;;;-143.91;100.00;62816.50;4984356;28;102021;-62
2021/03/03 09:39:31;;;;;;;17.63;11.07;;;14.50;54.10;;;-143.91;100.00;62816.50;4985864;28;101776;-63
2021/03/03 09:42:01;;;;;;;17.07;11.87;;;14.50;54.30;;;-143.91;100.00;62816.50;4984454;28;100838;-63
2021/03/03 09:44:44;;;;;;;15.73;11.13;;;14.40;54.30;;;-143.91;100.00;62816.50;4983885;28;100119;-63
2021/03/03 09:47:11;;;;;;;13.70;10.20;;;14.60;54.60;;;-143.91;100.00;62816.50;4983881;28;100275;-64
2021/03/03 09:49:39;;;;;;;14.70;11.40;;;14.80;53.60;;;-143.91;100.00;62816.50;4964691;28;103157;-64
2021/03/03 09:52:06;;;;;;;15.70;11.83;;;15.30;53.50;;;-143.91;100.00;62816.50;4984180;28;100981;-64
2021/03/03 09:54:36;;;;;;;16.43;11.20;;;15.30;53.00;;;-143.91;100.00;62816.50;4983730;28;100277;-63